createdAt,value
2023-02-11T00:02:18.835Z,30.27
2023-02-11T00:05:07.765Z,28.98
2023-02-11T00:07:48.742Z,30.95
2023-02-11T00:10:35.764Z,29.60
2023-02-11T00:13:15.762Z,29.10
2023-02-11T00:16:02.755Z,28.25
2023-02-11T00:18:42.762Z,32.22
2023-02-11T00:21:32.754Z,25.70
2023-02-11T00:24:06.863Z,34.80
2023-02-11T00:26:53.770Z,37.92
2023-02-11T00:29:26.873Z,33.33
2023-02-11T00:32:15.746Z,34.92
2023-02-11T00:34:55.754Z,36.00
2023-02-11T00:37:42.828Z,31.65
2023-02-11T00:40:23.773Z,31.73
2023-02-11T00:43:17.756Z,27.83
2023-02-11T00:46:04.768Z,29.90
2023-02-11T00:48:37.847Z,28.85
2023-02-11T00:51:24.759Z,30.25
2023-02-11T00:54:04.761Z,29.92
2023-02-11T00:56:58.766Z,30.38
2023-02-11T00:59:45.773Z,27.98
2023-02-11T01:02:25.752Z,30.45
2023-02-11T01:05:19.816Z,28.55
2023-02-11T01:08:06.713Z,30.13
2023-02-11T01:10:39.866Z,31.67
2023-02-11T01:13:26.778Z,31.83
2023-02-11T01:16:00.948Z,31.52
2023-02-11T01:18:49.761Z,29.13
2023-02-11T01:21:22.861Z,29.42
2023-02-11T01:24:09.788Z,34.38
2023-02-11T01:26:49.774Z,31.60
2023-02-11T01:29:36.790Z,28.80
2023-02-11T01:32:16.806Z,31.58
2023-02-11T01:35:03.776Z,26.67
2023-02-11T01:37:46.777Z,26.88
2023-02-11T01:40:40.780Z,28.77
2023-02-11T01:43:34.813Z,25.92
2023-02-11T01:46:34.834Z,29.08
2023-02-11T01:49:24.843Z,29.20
2023-02-11T01:52:06.789Z,30.65
2023-02-11T01:55:16.840Z,30.23
2023-02-11T01:58:00.792Z,29.73
2023-02-11T02:00:48.773Z,32.63
2023-02-11T02:03:28.909Z,28.25
2023-02-11T02:06:34.777Z,27.83
2023-02-11T02:09:22.936Z,30.23
2023-02-11T02:12:09.779Z,27.98
2023-02-11T02:14:54.832Z,34.00
2023-02-11T02:17:52.786Z,27.95
2023-02-11T02:21:10.789Z,31.20
2023-02-11T02:24:22.790Z,30.65
2023-02-11T02:27:43.799Z,27.50
2023-02-11T02:31:01.836Z,23.20
2023-02-11T02:34:12.829Z,27.83
2023-02-11T02:37:22.819Z,26.20
2023-02-11T02:40:15.783Z,25.05
2023-02-11T02:42:50.923Z,22.00
2023-02-11T02:45:37.796Z,26.42
2023-02-11T02:48:10.961Z,25.75
2023-02-11T02:51:04.797Z,25.83
2023-02-11T02:54:03.817Z,26.30
2023-02-11T02:57:16.798Z,26.05
2023-02-11T03:00:21.412Z,25.55
2023-02-11T03:03:10.808Z,26.23
2023-02-11T03:06:08.918Z,27.98
2023-02-11T03:09:18.796Z,28.15
2023-02-11T03:11:51.944Z,26.55
2023-02-11T03:14:39.801Z,27.73
2023-02-11T03:17:14.892Z,29.92
2023-02-11T03:20:03.866Z,26.55
2023-02-11T03:22:41.976Z,25.65
2023-02-11T03:25:35.842Z,24.10
2023-02-11T03:28:08.918Z,24.75
2023-02-11T03:31:02.962Z,26.27
2023-02-11T03:33:50.822Z,28.58
2023-02-11T03:36:53.814Z,29.98
2023-02-11T03:39:33.904Z,30.27
2023-02-11T03:42:21.802Z,31.58
2023-02-11T03:45:04.992Z,30.83
2023-02-11T03:47:59.811Z,26.75
2023-02-11T03:50:43.800Z,29.88
2023-02-11T03:53:37.814Z,31.58
2023-02-11T03:56:36.811Z,26.17
2023-02-11T03:59:23.825Z,25.90
2023-02-11T04:01:59.636Z,31.50
2023-02-11T04:04:46.787Z,26.63
2023-02-11T04:07:26.830Z,28.08
2023-02-11T04:10:21.833Z,26.85
2023-02-11T04:13:08.830Z,25.60
2023-02-11T04:15:41.928Z,27.33
2023-02-11T04:18:28.823Z,29.42
2023-02-11T04:21:01.928Z,28.80
2023-02-11T04:23:48.818Z,30.35
2023-02-11T04:26:21.930Z,30.88
2023-02-11T04:29:08.806Z,33.05
2023-02-11T04:31:42.019Z,27.83
2023-02-11T04:34:28.858Z,30.48
2023-02-11T04:37:01.920Z,26.02
2023-02-11T04:39:48.857Z,30.35
2023-02-11T04:42:21.915Z,29.60
2023-02-11T04:45:08.845Z,30.70
2023-02-11T04:47:48.825Z,31.10
2023-02-11T04:50:36.811Z,31.85
2023-02-11T04:53:16.843Z,33.25
2023-02-11T04:56:10.879Z,30.80
2023-02-11T04:58:57.862Z,34.75
2023-02-11T05:01:37.850Z,36.60
2023-02-11T05:04:31.901Z,31.88
2023-02-11T05:07:18.885Z,32.05
2023-02-11T05:09:51.940Z,29.70
2023-02-11T05:12:38.846Z,31.45
2023-02-11T05:15:19.824Z,30.88
2023-02-11T05:18:13.842Z,31.40
2023-02-11T05:21:00.828Z,28.65
2023-02-11T05:23:34.356Z,29.90
2023-02-11T05:26:21.876Z,31.92
2023-02-11T05:28:54.909Z,31.05
2023-02-11T05:31:41.864Z,29.48
2023-02-11T05:34:14.908Z,29.80
2023-02-11T05:37:02.874Z,35.25
2023-02-11T05:39:35.955Z,32.33
2023-02-11T05:42:22.836Z,33.63
2023-02-11T05:44:55.951Z,30.17
2023-02-11T05:47:42.808Z,28.95
2023-02-11T05:50:22.838Z,32.83
2023-02-11T05:53:10.822Z,35.38
2023-02-11T05:55:45.000Z,29.15
2023-02-11T05:58:31.895Z,29.65
2023-02-11T06:01:05.019Z,29.00
2023-02-11T06:03:51.901Z,33.75
2023-02-11T06:06:25.185Z,34.05
2023-02-11T06:09:11.850Z,36.90
2023-02-11T06:11:51.900Z,37.67
2023-02-11T06:14:46.871Z,33.60
2023-02-11T06:17:40.858Z,35.28
2023-02-11T06:20:34.910Z,36.38
2023-02-11T06:23:30.454Z,37.80
2023-02-11T06:26:23.866Z,34.28
2023-02-11T06:28:56.986Z,37.40
2023-02-11T06:31:46.040Z,37.17
2023-02-11T06:34:18.936Z,37.03
2023-02-11T06:37:05.869Z,36.13
2023-02-11T06:39:38.953Z,34.63
2023-02-11T06:42:25.885Z,35.22
2023-02-11T06:45:05.894Z,33.88
2023-02-11T06:47:59.862Z,37.97
2023-02-11T06:50:46.891Z,38.25
2023-02-11T06:53:26.857Z,39.72
2023-02-11T06:56:19.888Z,43.13
2023-02-11T06:58:54.849Z,38.83
2023-02-11T07:01:41.923Z,40.40
2023-02-11T07:04:15.482Z,39.70
2023-02-11T07:07:01.853Z,41.85
2023-02-11T07:09:34.974Z,48.60
2023-02-11T07:12:21.899Z,45.33
2023-02-11T07:15:01.882Z,42.63
2023-02-11T07:17:48.864Z,38.70
2023-02-11T07:20:22.004Z,41.28
2023-02-11T07:23:08.865Z,42.58
2023-02-11T07:25:42.967Z,46.22
2023-02-11T07:28:29.907Z,44.00
2023-02-11T07:31:09.951Z,46.03
2023-02-11T07:34:05.879Z,50.10
2023-02-11T07:36:52.859Z,54.60
2023-02-11T07:39:27.613Z,52.28
2023-02-11T07:42:14.886Z,51.35
2023-02-11T07:44:54.884Z,54.17
2023-02-11T07:47:41.864Z,51.95
2023-02-11T07:50:22.908Z,62.28
2023-02-11T07:53:09.949Z,53.63
2023-02-11T07:55:43.030Z,55.80
2023-02-11T07:58:29.857Z,49.47
2023-02-11T08:01:08.051Z,56.25
2023-02-11T08:03:54.870Z,57.20
2023-02-11T08:06:29.996Z,51.92
2023-02-11T08:09:12.881Z,64.10
2023-02-11T08:11:52.971Z,70.53
2023-02-11T08:14:33.879Z,64.57
2023-02-11T08:17:13.897Z,63.15
2023-02-11T08:19:46.971Z,63.72
2023-02-11T08:22:33.864Z,63.22
2023-02-11T08:25:13.857Z,54.10
2023-02-11T08:28:07.928Z,56.63
2023-02-11T08:30:54.920Z,58.45
2023-02-11T08:33:28.025Z,53.13
2023-02-11T08:36:16.889Z,59.25
2023-02-11T08:38:51.074Z,54.38
2023-02-11T08:41:41.896Z,65.50
2023-02-11T08:44:15.036Z,62.35
2023-02-11T08:47:01.869Z,53.70
2023-02-11T08:49:41.901Z,57.47
2023-02-11T08:52:28.914Z,72.93
2023-02-11T08:55:08.890Z,59.65
2023-02-11T08:58:02.918Z,62.65
2023-02-11T09:00:56.884Z,61.58
2023-02-11T09:03:43.885Z,63.08
2023-02-11T09:06:19.005Z,76.85
2023-02-11T09:09:05.935Z,69.65
2023-02-11T09:11:43.082Z,73.57
2023-02-11T09:14:30.918Z,68.47
2023-02-11T09:17:04.036Z,59.35
2023-02-11T09:19:50.902Z,58.33
2023-02-11T09:22:23.987Z,57.65
2023-02-11T09:25:10.974Z,54.50
2023-02-11T09:27:44.043Z,54.03
2023-02-11T09:30:30.997Z,60.58
2023-02-11T09:33:04.142Z,57.40
2023-02-11T09:35:50.905Z,53.72
2023-02-11T09:38:24.003Z,73.22
2023-02-11T09:41:13.892Z,71.95
2023-02-11T09:43:55.016Z,56.55
2023-02-11T09:46:46.913Z,53.78
2023-02-11T09:49:36.917Z,53.28
2023-02-11T09:52:37.928Z,49.63
2023-02-11T09:55:31.903Z,48.63
2023-02-11T09:58:05.313Z,53.22
2023-02-11T10:01:09.966Z,44.47
2023-02-11T10:03:55.957Z,37.15
2023-02-11T10:06:50.908Z,34.83
2023-02-11T10:09:27.130Z,37.10
2023-02-11T10:12:19.949Z,35.90
2023-02-11T10:15:11.911Z,33.15
2023-02-11T10:18:27.935Z,29.88
2023-02-11T10:21:32.929Z,32.45
2023-02-11T10:24:28.922Z,31.38
2023-02-11T10:27:23.924Z,35.53
2023-02-11T10:30:03.114Z,32.38
2023-02-11T10:33:23.915Z,46.10
2023-02-11T10:36:04.959Z,38.05
2023-02-11T10:38:58.927Z,29.33
2023-02-11T10:41:59.906Z,28.83
2023-02-11T10:45:02.924Z,28.80
2023-02-11T10:47:57.916Z,30.60
2023-02-11T10:50:44.937Z,29.02
2023-02-11T10:53:27.283Z,28.00
2023-02-11T10:56:06.947Z,28.35
2023-02-11T10:59:00.135Z,30.63
2023-02-11T11:02:11.002Z,30.70
2023-02-11T11:04:51.951Z,29.65
2023-02-11T11:07:38.949Z,30.50
2023-02-11T11:10:52.215Z,29.55
2023-02-11T11:13:48.917Z,29.75
2023-02-11T11:16:38.949Z,29.58
2023-02-11T11:19:21.930Z,28.60
2023-02-11T11:22:15.964Z,26.75
2023-02-11T11:25:03.936Z,29.70
2023-02-11T11:27:37.828Z,30.65
2023-02-11T11:30:26.025Z,28.80
2023-02-11T11:32:59.057Z,29.50
2023-02-11T11:35:45.964Z,29.95
2023-02-11T11:38:28.927Z,34.22
2023-02-11T11:41:36.956Z,29.60
2023-02-11T11:44:41.992Z,28.08
2023-02-11T11:47:35.989Z,33.20
2023-02-11T11:50:27.781Z,27.65
2023-02-11T11:53:52.953Z,29.58
2023-02-11T11:56:39.071Z,29.25
2023-02-11T11:59:22.955Z,27.92
2023-02-11T12:02:42.071Z,28.73
2023-02-11T12:05:54.931Z,28.20
2023-02-11T12:08:47.077Z,27.42
2023-02-11T12:11:42.951Z,27.38
2023-02-11T12:14:30.985Z,31.50
2023-02-11T12:17:42.950Z,30.05
2023-02-11T12:20:44.962Z,31.75
2023-02-11T12:24:01.953Z,32.60
2023-02-11T12:26:55.970Z,30.05
2023-02-11T12:29:44.051Z,31.80
2023-02-11T12:32:50.942Z,30.77
2023-02-11T12:36:09.054Z,28.40
2023-02-11T12:39:13.963Z,33.80
2023-02-11T12:42:29.967Z,34.00
2023-02-11T12:45:28.026Z,30.83
2023-02-11T12:48:48.961Z,31.27
2023-02-11T12:52:07.016Z,32.13
2023-02-11T12:55:07.015Z,34.22
2023-02-11T12:57:44.108Z,32.90
2023-02-11T13:00:37.992Z,29.40
2023-02-11T13:03:25.985Z,30.83
2023-02-11T13:06:27.980Z,33.65
2023-02-11T13:09:24.996Z,29.77
2023-02-11T13:12:22.034Z,26.50
2023-02-11T13:15:14.002Z,29.20
2023-02-11T13:18:12.035Z,27.42
2023-02-11T13:21:43.970Z,26.88
2023-02-11T13:24:45.981Z,37.63
2023-02-11T13:27:25.995Z,35.35
2023-02-11T13:30:40.011Z,31.88
2023-02-11T13:33:38.999Z,30.17
2023-02-11T13:36:15.112Z,32.30
2023-02-11T13:39:08.002Z,32.15
2023-02-11T13:41:51.585Z,37.65
2023-02-11T13:44:47.988Z,35.50
2023-02-11T13:47:43.997Z,32.15
2023-02-11T13:50:39.985Z,35.78
2023-02-11T13:53:26.998Z,37.70
2023-02-11T13:56:13.134Z,34.53
2023-02-11T13:59:02.032Z,35.15
2023-02-11T14:02:14.440Z,34.63
2023-02-11T14:05:43.998Z,30.02
2023-02-11T14:08:42.020Z,41.05
2023-02-11T14:11:48.022Z,37.90
2023-02-11T14:14:40.055Z,39.25
2023-02-11T14:17:13.159Z,45.63
2023-02-11T14:19:59.999Z,50.30
2023-02-11T14:22:37.085Z,38.80
2023-02-11T14:25:33.054Z,36.10
2023-02-11T14:28:41.057Z,33.28
2023-02-11T14:31:41.133Z,35.35
2023-02-11T14:34:34.010Z,37.17
2023-02-11T14:37:21.124Z,35.15
2023-02-11T14:40:14.008Z,34.25
2023-02-11T14:42:48.108Z,34.83
2023-02-11T14:45:43.014Z,36.40
2023-02-11T14:48:46.009Z,38.45
2023-02-11T14:51:40.037Z,35.13
2023-02-11T14:54:40.086Z,37.20
2023-02-11T14:57:35.017Z,39.20
2023-02-11T15:00:35.020Z,41.90
2023-02-11T15:03:33.028Z,38.97
2023-02-11T15:06:12.213Z,43.70
2023-02-11T15:09:09.000Z,46.00
2023-02-11T15:11:49.159Z,43.25
2023-02-11T15:14:47.007Z,46.38
2023-02-11T15:17:32.095Z,48.65
2023-02-11T15:20:33.014Z,53.17
2023-02-11T15:23:18.022Z,42.78
2023-02-11T15:26:12.027Z,47.00
2023-02-11T15:28:59.358Z,65.68
2023-02-11T15:31:35.286Z,67.90
2023-02-11T15:34:22.027Z,55.55
2023-02-11T15:36:55.175Z,51.22
2023-02-11T15:39:50.018Z,46.15
2023-02-11T15:42:52.578Z,44.72
2023-02-11T15:45:51.027Z,40.67
2023-02-11T15:49:06.068Z,47.00
2023-02-11T15:51:54.039Z,52.38
2023-02-11T15:54:32.602Z,52.15
2023-02-11T15:57:19.034Z,42.15
2023-02-11T16:00:02.025Z,51.70
2023-02-11T16:02:53.048Z,39.42
2023-02-11T16:05:32.230Z,35.58
2023-02-11T16:08:32.075Z,36.40
2023-02-11T16:11:09.212Z,37.05
2023-02-11T16:13:56.031Z,37.97
2023-02-11T16:16:36.297Z,38.33
2023-02-11T16:19:27.048Z,46.45
2023-02-11T16:22:10.089Z,44.90
2023-02-11T16:25:06.062Z,54.25
2023-02-11T16:27:58.096Z,52.10
2023-02-11T16:30:38.182Z,46.40
2023-02-11T16:33:25.034Z,40.80
2023-02-11T16:36:02.108Z,48.53
2023-02-11T16:38:49.051Z,43.47
2023-02-11T16:41:22.180Z,41.33
2023-02-11T16:44:09.051Z,45.30
2023-02-11T16:46:43.170Z,43.83
2023-02-11T16:49:36.097Z,42.38
2023-02-11T16:52:14.154Z,43.97
2023-02-11T16:55:01.472Z,41.92
2023-02-11T16:57:35.177Z,40.83
2023-02-11T17:00:24.064Z,45.50
2023-02-11T17:03:04.046Z,42.30
2023-02-11T17:06:00.368Z,45.92
2023-02-11T17:08:54.056Z,52.08
2023-02-11T17:11:41.041Z,44.80
2023-02-11T17:14:14.211Z,58.92
2023-02-11T17:17:01.062Z,59.45
2023-02-11T17:19:41.085Z,49.35
2023-02-11T17:22:35.054Z,54.25
2023-02-11T17:25:22.052Z,51.45
2023-02-11T17:28:02.112Z,52.65
2023-02-11T17:30:50.091Z,50.95
2023-02-11T17:33:23.183Z,50.42
2023-02-11T17:36:15.086Z,51.72
2023-02-11T17:38:55.076Z,49.88
2023-02-11T17:41:44.082Z,55.38
2023-02-11T17:44:25.065Z,49.95
2023-02-11T17:47:19.058Z,53.42
2023-02-11T17:50:13.059Z,60.80
2023-02-11T17:53:00.103Z,57.28
2023-02-11T17:55:33.193Z,51.88
2023-02-11T17:58:20.131Z,49.72
2023-02-11T18:00:53.306Z,45.58
2023-02-11T18:03:40.060Z,43.72
2023-02-11T18:06:14.218Z,45.22
2023-02-11T18:09:04.213Z,52.30
2023-02-11T18:11:47.101Z,53.53
2023-02-11T18:14:34.095Z,48.65
2023-02-11T18:17:14.063Z,46.05
2023-02-11T18:20:04.080Z,48.60
2023-02-11T18:22:40.174Z,47.33
2023-02-11T18:25:27.095Z,47.17
2023-02-11T18:28:07.132Z,56.67
2023-02-11T18:30:54.104Z,60.42
2023-02-11T18:33:28.237Z,63.35
2023-02-11T18:36:21.082Z,60.47
2023-02-11T18:39:01.080Z,58.88
2023-02-11T18:41:50.095Z,59.45
2023-02-11T18:44:24.754Z,58.33
2023-02-11T18:47:11.092Z,58.08
2023-02-11T18:49:44.192Z,62.53
2023-02-11T18:52:31.119Z,58.15
2023-02-11T18:55:04.270Z,60.03
2023-02-11T18:57:51.144Z,58.22
2023-02-11T19:00:28.266Z,71.95
2023-02-11T19:03:15.092Z,69.78
2023-02-11T19:06:01.089Z,66.75
2023-02-11T19:08:57.490Z,65.45
2023-02-11T19:11:54.155Z,65.55
2023-02-11T19:14:42.102Z,65.00
2023-02-11T19:17:15.296Z,65.82
2023-02-11T19:20:02.237Z,61.38
2023-02-11T19:22:35.184Z,66.18
2023-02-11T19:25:22.113Z,63.28
2023-02-11T19:27:55.194Z,63.67
2023-02-11T19:30:43.203Z,63.58
2023-02-11T19:33:17.271Z,59.15
2023-02-11T19:36:10.366Z,54.30
2023-02-11T19:38:45.260Z,54.45
2023-02-11T19:41:32.093Z,55.15
2023-02-11T19:44:05.220Z,54.22
2023-02-11T19:47:00.242Z,56.15
2023-02-11T19:49:47.138Z,61.40
2023-02-11T19:52:20.548Z,61.28
2023-02-11T19:55:07.202Z,61.80
2023-02-11T19:57:47.310Z,68.90
2023-02-11T20:01:01.293Z,68.53
2023-02-11T20:03:49.143Z,65.57
2023-02-11T20:06:26.283Z,67.65
2023-02-11T20:09:16.157Z,65.15
2023-02-11T20:11:57.173Z,64.28
2023-02-11T20:14:51.166Z,60.78
2023-02-11T20:17:38.122Z,63.13
2023-02-11T20:20:12.939Z,76.50
2023-02-11T20:23:00.127Z,69.97
2023-02-11T20:25:40.093Z,65.53
2023-02-11T20:28:27.129Z,72.82
2023-02-11T20:31:04.308Z,72.43
2023-02-11T20:33:53.149Z,68.05
2023-02-11T20:36:38.132Z,69.28
2023-02-11T20:39:28.137Z,71.18
2023-02-11T20:42:08.137Z,74.97
2023-02-11T20:45:02.133Z,76.35
2023-02-11T20:47:56.108Z,72.95
2023-02-11T20:50:43.174Z,62.63
2023-02-11T20:53:16.258Z,80.45
2023-02-11T20:56:03.196Z,80.70
2023-02-11T20:58:36.247Z,72.78
2023-02-11T21:01:33.202Z,66.22
2023-02-11T21:04:19.142Z,67.55
2023-02-11T21:07:08.129Z,73.18
2023-02-11T21:09:41.214Z,75.43
2023-02-11T21:12:28.109Z,66.10
2023-02-11T21:15:04.959Z,68.07
2023-02-11T21:17:52.153Z,75.78
2023-02-11T21:20:32.196Z,80.28
2023-02-11T21:23:19.138Z,87.90
2023-02-11T21:25:59.176Z,67.22
2023-02-11T21:28:46.232Z,69.15
2023-02-11T21:31:32.464Z,65.75
2023-02-11T21:34:19.143Z,61.72
2023-02-11T21:36:52.422Z,63.42
2023-02-11T21:39:39.119Z,57.22
2023-02-11T21:42:19.141Z,67.90
2023-02-11T21:45:13.199Z,77.88
2023-02-11T21:48:07.149Z,65.03
2023-02-11T21:51:01.159Z,72.57
2023-02-11T21:53:55.193Z,85.93
2023-02-11T21:56:43.184Z,91.20
2023-02-11T21:59:18.272Z,101.60
2023-02-11T22:02:05.238Z,96.28
2023-02-11T22:04:38.329Z,84.72
2023-02-11T22:07:27.157Z,85.45
2023-02-11T22:10:00.280Z,77.57
2023-02-11T22:12:47.166Z,74.50
2023-02-11T22:15:27.221Z,65.35
2023-02-11T22:18:21.125Z,70.82
2023-02-11T22:21:11.203Z,67.95
2023-02-11T22:23:45.277Z,58.50
2023-02-11T22:26:34.164Z,44.75
2023-02-11T22:29:07.244Z,52.35
2023-02-11T22:31:54.204Z,48.45
2023-02-11T22:34:27.281Z,31.77
2023-02-11T22:37:09.136Z,31.25
2023-02-11T22:39:56.151Z,30.15
2023-02-11T22:42:50.147Z,30.85
2023-02-11T22:45:44.249Z,30.10
2023-02-11T22:48:24.277Z,29.23
2023-02-11T22:51:04.135Z,29.83
2023-02-11T22:53:44.147Z,30.33
2023-02-11T22:56:39.217Z,32.75
2023-02-11T22:59:26.177Z,32.53
2023-02-11T23:01:59.407Z,32.10
2023-02-11T23:04:48.359Z,32.60
2023-02-11T23:07:30.181Z,33.58
2023-02-11T23:10:17.157Z,32.20
2023-02-11T23:12:57.169Z,32.10
2023-02-11T23:15:56.535Z,32.75
2023-02-11T23:18:51.162Z,33.17
2023-02-11T23:21:47.160Z,30.33
2023-02-11T23:24:34.180Z,30.65
2023-02-11T23:27:07.283Z,31.40
2023-02-11T23:29:54.151Z,31.20
2023-02-11T23:32:27.352Z,29.95
2023-02-11T23:35:14.158Z,31.98
2023-02-11T23:37:47.288Z,29.88
2023-02-11T23:40:34.160Z,28.48
2023-02-11T23:43:07.251Z,30.55
2023-02-11T23:46:01.230Z,31.02
2023-02-11T23:48:55.206Z,30.58
2023-02-11T23:51:42.189Z,30.15
2023-02-11T23:54:26.184Z,29.52
2023-02-11T23:57:20.191Z,29.17
